Flight Track Log - Related Links

Times and Time Zones

All times are in EDT time to prevent confusion due to time zone crossing. See the SKW5550 flight status page for this flight to view local times or setup timezone preferences in your user account.

Time Position Orientation Groundspeed Altitude Reporting Facility
EDT Latitude Longitude Course Direction KTS MPH feet Rate Location/Type
Fri 05:20:40 PM 39.9333 -104.7000 303° West 189 217 7,100  Level Denver TRACON
Fri 05:21:40 PM 39.9667 -104.7667 303° West 250 288 9,200 2,250 Climbing Denver TRACON
Fri 05:22:40 PM 39.9500 -104.8500 255° West 254 292 11,600 2,467 Climbing Denver TRACON
Fri 05:23:10 PM 39.9528 -104.9028 274° West 258 297 12,900 1,826 Climbing Denver Center
Fri 05:24:12 PM 39.9569 -105.0053 273° West 281 323 14,400 1,548 Climbing Denver Center
Fri 05:25:14 PM 39.9597 -105.1297 272° West 319 367 16,100 1,645 Climbing Denver Center
Fri 05:26:16 PM 39.9631 -105.2497 272° West 331 381 17,800 1,597 Climbing Denver Center
Fri 05:27:18 PM 39.9664 -105.3817 272° West 339 390 19,400 1,403 Climbing Denver Center
Fri 05:28:20 PM 39.9706 -105.5064 273° West 346 398 20,700 1,161 Climbing Denver Center
Fri 05:29:22 PM 39.9742 -105.6353 272° West 357 411 21,800 1,016 Climbing Denver Center
Fri 05:30:24 PM 39.9744 -105.7792 270° West 371 427 22,800 1,008 Climbing Denver Center
Fri 05:31:27 PM 39.9733 -105.9147 269° West 362 417 23,900 1,008 Climbing Denver Center
Fri 05:32:29 PM 39.9822 -106.0486 275° West 369 425 24,900 919 Climbing Denver Center
Fri 05:33:31 PM 39.9892 -106.1828 274° West 373 429 25,800 871 Climbing Denver Center
Fri 05:34:33 PM 39.9953 -106.3203 273° West 380 437 26,700 871 Climbing Denver Center
Fri 05:35:35 PM 40.0058 -106.4572 276° West 380 437 27,600 823 Climbing Denver Center
Fri 05:36:37 PM 40.0300 -106.6106 282° West 376 433 28,400 677 Climbing Denver Center
Fri 05:37:39 PM 40.0489 -106.7389 281° West 378 435 29,000 629 Climbing Denver Center
Fri 05:38:41 PM 40.0725 -106.8900 282° West 380 437 29,700 629 Climbing Denver Center
Fri 05:39:43 PM 40.0928 -107.0211 281° West 383 441 30,300 629 Climbing Denver Center
Fri 05:40:45 PM 40.1150 -107.1747 281° West 385 443 31,000 581 Climbing Denver Center
Fri 05:41:47 PM 40.1347 -107.3050 281° West 383 441 31,500 484 Climbing Denver Center
Fri 05:42:49 PM 40.1575 -107.4550 281° West 379 436 32,000 242 Climbing Denver Center
Fri 05:43:51 PM 40.1772 -107.5864 281° West 382 440 32,000  Level Denver Center
Fri 05:44:53 PM 40.1986 -107.7425 280° West 389 448 32,000  Level Denver Center
Fri 05:45:55 PM 40.2186 -107.8803 281° West 398 458 32,000  Level Denver Center
Fri 05:46:57 PM 40.2422 -108.0442 281° West 406 467 32,000  Level Denver Center
Fri 05:47:59 PM 40.2608 -108.1825 280° West 407 468 32,000  Level Denver Center
Fri 05:49:01 PM 40.2842 -108.3433 281° West 405 466 32,000  Level Denver Center
Fri 05:49:32 PM 40.2931 -108.4153 279° West 408 470 32,000  Level Salt Center
Fri 05:50:34 PM 40.3122 -108.5542 280° West 405 466 32,000  Level Salt Center
Fri 05:51:05 PM 40.3250 -108.6411 281° West 401 461 32,000  Level Denver Center
Fri 05:52:08 PM 40.3433 -108.7806 280° West 404 465 32,000  Level Denver Center
Fri 05:53:10 PM 40.3644 -108.9411 280° West 401 461 32,000  Level Denver Center
Fri 05:53:40 PM 40.3736 -109.0094 280° West 402 463 32,000  Level Salt Center
Fri 05:54:42 PM 40.3919 -109.1475 280° West 402 463 32,000  Level Salt Center
Fri 05:55:44 PM 40.4128 -109.3072 280° West 401 461 32,000  Level Salt Center
Fri 05:56:46 PM 40.4306 -109.4444 280° West 400 460 32,000  Level Salt Center
Fri 05:57:48 PM 40.4508 -109.6061 279° West 401 461 32,000  Level Salt Center
Fri 05:58:50 PM 40.4686 -109.7436 280° West 401 461 32,000  Level Salt Center
Fri 05:59:52 PM 40.4883 -109.9042 279° West 400 460 32,000  Level Salt Center
Fri 06:00:54 PM 40.5050 -110.0439 279° West 404 465 32,000  Level Salt Center
Fri 06:01:56 PM 40.5203 -110.2083 277° West 406 467 32,000  Level Salt Center
Fri 06:02:58 PM 40.5347 -110.3481 278° West 405 466 32,000  Level Salt Center
Fri 06:04:00 PM 40.5494 -110.5131 277° West 407 468 32,000  Level Salt Center
Fri 06:05:02 PM 40.5617 -110.6439 277° West 405 466 32,000  Level Salt Center
Fri 06:06:04 PM 40.5758 -110.7900 277° West 405 466 32,000  Level Salt Center
Fri 06:07:06 PM 40.5883 -110.9364 276° West 403 464 32,000  Level Salt Center
Fri 06:08:08 PM 40.6050 -111.1131 277° West 405 466 32,000  Level Salt Center
Fri 06:09:10 PM 40.6181 -111.2586 277° West 402 463 32,000  Level Salt Center
Fri 06:10:11 PM 40.6306 -111.4042 277° West 398 458 32,000  Level Salt Center
Fri 06:11:13 PM 40.6422 -111.5508 276° West 400 460 32,000  Level Salt Center
Fri 06:12:15 PM 40.6558 -111.6969 277° West 400 460 32,000  Level Salt Center
Fri 06:13:17 PM 40.6667 -111.8439 276° West 400 460 32,000  Level Salt Center
Fri 06:14:19 PM 40.6794 -111.9917 277° West 402 463 32,000  Level Salt Center
Fri 06:15:21 PM 40.6906 -112.1389 276° West 404 465 32,000  Level Salt Center
Fri 06:16:23 PM 40.7044 -112.3167 276° West 404 465 32,000  Level Salt Center
Fri 06:17:24 PM 40.7158 -112.4644 276° West 407 468 32,000  Level Salt Center
Fri 06:18:26 PM 40.7222 -112.6128 273° West 406 467 32,000  Level Salt Center
Fri 06:19:28 PM 40.7242 -112.7617 271° West 407 468 32,000  Level Salt Center
Fri 06:20:30 PM 40.7250 -112.9111 270° West 407 468 32,000  Level Salt Center
Fri 06:21:32 PM 40.7253 -113.0594 270° West 405 466 32,000  Level Salt Center
Fri 06:22:34 PM 40.7261 -113.2083 270° West 406 467 32,000  Level Salt Center
Fri 06:23:36 PM 40.7289 -113.3861 271° West 404 465 32,000  Level Salt Center
Fri 06:24:38 PM 40.7275 -113.5336 269° West 404 465 32,000  Level Salt Center
Fri 06:25:40 PM 40.7264 -113.6814 269° West 404 465 32,000  Level Salt Center
Fri 06:26:42 PM 40.7250 -113.8283 269° West 402 463 32,000  Level Salt Center
Fri 06:27:43 PM 40.7206 -113.9769 268° West 405 466 32,000  Level Salt Center
Fri 06:28:45 PM 40.7158 -114.1239 268° West 404 465 32,000  Level Salt Center
Fri 06:29:47 PM 40.7081 -114.3008 267° West 403 464 32,000  Level Salt Center
Fri 06:30:49 PM 40.7033 -114.4494 268° West 405 466 32,000  Level Salt Center
Fri 06:31:51 PM 40.6997 -114.5969 268° West 405 466 32,000  Level Salt Center
Fri 06:32:53 PM 40.6928 -114.7447 267° West 405 466 32,000  Level Salt Center
Fri 06:33:54 PM 40.6853 -114.8944 266° West 405 466 32,000  Level Salt Center
Fri 06:34:56 PM 40.6769 -115.0603 266° West 405 466 32,000  Level Salt Center
Fri 06:35:58 PM 40.6661 -115.2019 264° West 406 467 32,000  Level Salt Center
Fri 06:37:00 PM 40.6564 -115.3661 266° West 404 465 32,000  Level Salt Center
Fri 06:38:01 PM 40.6503 -115.5100 267° West 408 470 32,000  Level Salt Center
Fri 06:39:03 PM 40.6456 -115.6533 268° West 410 472 32,000  Level Salt Center
Fri 06:40:05 PM 40.6364 -115.8219 266° West 412 474 32,000  Level Salt Center
Fri 06:41:07 PM 40.6283 -115.9656 266° West 412 474 32,000  Level Salt Center
Fri 06:42:08 PM 40.6189 -116.1336 266° West 413 475 32,000  Level Salt Center
Fri 06:43:10 PM 40.6100 -116.2783 265° West 414 476 32,000  Level Salt Center
Fri 06:44:12 PM 40.5986 -116.4472 265° West 416 479 32,000  Level Salt Center
Fri 06:45:14 PM 40.5903 -116.5917 266° West 416 479 32,000  Level Salt Center
Fri 06:46:15 PM 40.5797 -116.7592 265° West 416 479 32,000  Level Salt Center
Fri 06:47:17 PM 40.5692 -116.9019 264° West 417 480 32,000  Level Salt Center
Fri 06:48:19 PM 40.5194 -117.0608 248° West 434 499 32,000  Level Salt Center
Fri 06:49:20 PM 40.4700 -117.1947 244° Southwest 430 495 32,000  Level Salt Center
Fri 06:50:22 PM 40.4133 -117.3506 245° Southwest 426 490 32,000  Level Salt Center
Fri 06:51:24 PM 40.3633 -117.4844 244° Southwest 427 491 32,000  Level Salt Center
Fri 06:52:25 PM 40.3142 -117.6186 244° Southwest 427 491 32,000  Level Salt Center
Fri 06:53:27 PM 40.2556 -117.7736 244° Southwest 426 490 32,000  Level Salt Center
Fri 06:54:29 PM 40.2053 -117.9075 244° Southwest 427 491 32,000  Level Salt Center
Fri 06:55:30 PM 40.1458 -118.0639 244° Southwest 430 495 32,000  Level Salt Center
Fri 06:56:32 PM 40.0958 -118.1972 244° Southwest 428 493 32,000  Level Salt Center
Fri 06:57:34 PM 40.0381 -118.3500 244° Southwest 428 493 32,000  Level Salt Center
Fri 06:58:35 PM 39.9867 -118.4883 244° Southwest 426 490 32,000  Level Salt Center
Fri 06:59:46 PM 39.9231 -118.6558 244° Southwest 429 494 32,000  Level Oakland Center
Fri 07:00:48 PM 39.8700 -118.7931 243° Southwest 427 491 32,000  Level Oakland Center
Fri 07:01:49 PM 39.8167 -118.9289 243° Southwest 424 488 32,000 -390 Level Oakland Center
Fri 07:02:51 PM 39.7619 -119.0689 243° Southwest 433 498 31,200 -976 Descending Oakland Center
Fri 07:03:52 PM 39.7042 -119.2153 243° Southwest 455 524 30,000 -1,268 Descending Oakland Center
Fri 07:04:54 PM 39.6347 -119.3903 243° Southwest 457 526 28,600 -1,268 Descending Oakland Center
Fri 07:05:55 PM 39.5806 -119.5306 243° Southwest 440 506 27,400 -1,171 Descending Oakland Center
Fri 07:06:57 PM 39.5264 -119.6650 242° Southwest 425 489 26,200 -1,171 Descending Oakland Center
Fri 07:07:58 PM 39.4589 -119.7828 233° Southwest 409 471 25,000 -1,073 Descending Oakland Center
Fri 07:09:00 PM 39.3947 -119.8969 234° Southwest 396 456 24,000 -488 Descending Oakland Center
Fri 07:10:01 PM 39.3314 -120.0061 233° Southwest 380 437 24,000 -537 Level Oakland Center
Fri 07:11:03 PM 39.2694 -120.1100 232° Southwest 367 422 22,900 -1,415 Descending Oakland Center
Fri 07:12:04 PM 39.2139 -120.2136 235° Southwest 339 390 21,100 -1,951 Descending Oakland Center
Fri 07:13:06 PM 39.1683 -120.3228 242° Southwest 347 399 18,900 -2,049 Descending Oakland Center
Fri 07:14:07 PM 39.1392 -120.4364 252° West 338 389 16,900 -2,195 Descending Oakland Center
Fri 07:15:09 PM 39.1053 -120.5678 252° West 325 374 14,400 -2,244 Descending Oakland Center
Fri 07:16:10 PM 39.0769 -120.6742 251° West 316 364 12,300 -1,854 Descending Oakland Center
Fri 07:17:12 PM 39.0506 -120.7775 252° West 307 353 10,600 -1,694 Descending Oakland Center
Fri 07:18:14 PM 39.0258 -120.8744 252° West 291 335 8,800 -1,500 Descending Oakland Center
Fri 07:19:16 PM 39.0025 -120.9661 252° West 274 315 7,500 -1,512 Descending Oakland Center
Fri 07:20:17 PM 38.9767 -121.0614 251° West 254 292 5,700 -1,180 Descending Oakland Center
Fri 07:21:18 PM 38.9578 -121.1350 252° West 250 288 5,100 -396 Descending Oakland Center
Fri 07:21:48 PM 38.9500 -121.1833 258° West 253 291 5,100 -63 Level Northern TRACON
Fri 07:22:54 PM 38.9167 -121.3000 250° West 263 303 5,000 -476 Descending Northern TRACON
Fri 07:23:54 PM 38.9000 -121.3667 252° West 237 273 4,100 -850 Descending Northern TRACON
Fri 07:24:54 PM 38.8833 -121.4500 256° West 206 237 3,300 -632 Descending Northern TRACON
Fri 07:25:48 PM 38.8667 -121.5000 247° West 175 201 2,900 -421 Descending Northern TRACON
Fri 07:26:48 PM 38.8333 -121.5500 229° Southwest 185 213 2,500 -476 Descending Northern TRACON
Fri 07:27:54 PM 38.7833 -121.5833 207° Southwest 174 200 1,900 -762 Descending Northern TRACON
Fri 07:28:54 PM 38.7500 -121.5833 180° South 144 166 900 -1,000 Descending Northern TRACON
Fri 07:31:00 PM 38.6954 -121.5908 218° Southwest  Level Estimated
Fri 07:38:00 PM 38.6954 -121.5908 218° Southwest  Level Estimated
Fri 07:39:00 PM 38.6954 -121.5908 218° Southwest  Level Estimated

Login

Don't have an account? Register now (free) for customized features, flight alerts, and more!